Time;durP1;ratioP1;P1;durP2;ratioP2;P2;SDS_P1;SDS_P2;PMS_P1;PMS_P2;Temp;Humidity;BMP_temperature;BMP_pressure;BME280_temperature;BME280_humidity;BME280_pressure;Samples;Min_cycle;Max_cycle;Signal;HPM_P1;HPM_P2
2022/01/03 00:00:23;;;;;;;4.33;2.27;;;16.20;58.30;;;-142.21;85.99;112049.66;4953761;28;20453;-78
2022/01/03 00:02:51;;;;;;;5.07;2.60;;;16.20;57.90;;;-142.21;86.67;112049.66;4954394;29;20465;-76
2022/01/03 00:05:18;;;;;;;4.07;2.03;;;16.20;58.00;;;-142.21;86.93;112049.66;4953378;29;20480;-77
2022/01/03 00:07:47;;;;;;;8.07;2.60;;;16.30;58.00;;;-142.21;86.85;112049.66;4953328;28;20507;-80
2022/01/03 00:10:18;;;;;;;4.17;2.23;;;16.30;57.80;;;-142.21;86.81;112049.66;4947798;28;20571;-78
2022/01/03 00:12:49;;;;;;;5.60;2.17;;;16.20;57.80;;;-142.21;86.86;112049.66;4944831;29;20441;-77
2022/01/03 00:15:19;;;;;;;3.77;2.40;;;16.10;58.10;;;-142.21;87.14;112049.66;4951938;29;20536;-77
2022/01/03 00:17:48;;;;;;;5.70;2.40;;;16.20;58.20;;;-142.21;87.46;112049.66;4952891;29;20948;-78
2022/01/03 00:20:17;;;;;;;2.87;2.10;;;16.10;58.30;;;-142.21;87.40;112049.66;4952975;29;20528;-78
2022/01/03 00:22:56;;;;;;;5.33;2.50;;;16.10;58.30;;;-142.21;87.33;112049.66;4952680;29;20487;-76
2022/01/03 00:25:26;;;;;;;4.40;2.53;;;16.10;58.10;;;-142.21;86.90;112049.66;4945840;29;20449;-77
2022/01/03 00:28:04;;;;;;;8.93;2.60;;;16.00;58.30;;;-142.21;86.63;112049.66;4953299;29;20472;-78
2022/01/03 00:30:37;;;;;;;3.60;2.10;;;16.10;58.00;;;-142.21;86.30;112049.66;4952694;28;20508;-80
2022/01/03 00:33:06;;;;;;;3.73;1.93;;;16.10;58.10;;;-142.21;86.01;112049.66;4952716;29;20463;-77
2022/01/03 00:35:36;;;;;;;5.50;2.40;;;16.20;58.00;;;-142.21;84.56;112049.66;4947123;28;20508;-80
2022/01/03 00:38:08;;;;;;;4.20;2.17;;;16.20;57.60;;;-142.21;84.59;112049.66;4953613;29;20449;-79
2022/01/03 00:40:36;;;;;;;5.50;2.47;;;16.20;57.40;;;-142.21;83.71;112049.66;4943908;29;20988;-79
2022/01/03 00:43:05;;;;;;;6.00;1.93;;;16.30;57.30;;;-142.21;83.27;112049.66;4946814;29;20477;-81
2022/01/03 00:45:33;;;;;;;6.03;2.27;;;16.30;57.20;;;-142.21;82.48;112049.66;4942748;29;20504;-81
2022/01/03 00:48:00;;;;;;;4.20;2.27;;;16.20;56.90;;;-142.21;82.37;112049.66;4953284;28;20878;-80
2022/01/03 00:50:29;;;;;;;5.93;2.13;;;16.30;56.60;;;-142.21;81.24;112049.66;4952792;29;20511;-82
2022/01/03 00:52:57;;;;;;;5.70;2.03;;;16.30;56.40;;;-142.21;80.88;112049.66;4953204;29;20449;-78
2022/01/03 00:55:26;;;;;;;6.70;2.00;;;16.40;56.50;;;-142.21;81.49;112049.66;4941648;28;20446;-78
2022/01/03 00:58:04;;;;;;;5.90;2.40;;;16.40;56.50;;;-142.21;80.86;112049.66;4955267;28;20464;-78
2022/01/03 01:00:36;;;;;;;5.37;2.20;;;16.40;56.40;;;-142.21;80.69;112049.66;4952795;29;20962;-83
2022/01/03 01:03:10;;;;;;;6.10;2.27;;;16.50;56.30;;;-142.21;80.27;112049.66;4943224;29;20456;-77
2022/01/03 01:05:41;;;;;;;3.93;1.90;;;16.60;56.40;;;-142.21;80.96;112049.66;4956740;28;20453;-77
2022/01/03 01:08:09;;;;;;;6.77;2.07;;;16.60;56.30;;;-142.21;80.88;112049.66;4947771;28;20533;-78
2022/01/03 01:10:41;;;;;;;5.60;2.10;;;16.60;56.80;;;-142.21;80.70;112049.66;4939279;29;20560;-78
2022/01/03 01:13:12;;;;;;;4.63;2.00;;;16.60;56.30;;;-142.21;80.87;112049.66;4953381;28;20962;-80
2022/01/03 01:15:40;;;;;;;4.10;1.83;;;16.60;56.40;;;-142.21;81.30;112049.66;4953123;29;20516;-78
2022/01/03 01:18:08;;;;;;;5.03;2.37;;;16.60;56.30;;;-142.21;80.88;112049.66;4957082;28;20452;-77
2022/01/03 01:20:39;;;;;;;5.23;2.40;;;16.60;56.40;;;-142.21;81.09;112049.66;4952008;28;20517;-79
2022/01/03 01:23:07;;;;;;;3.57;1.77;;;16.60;56.30;;;-142.21;81.41;112049.66;4937709;29;20453;-76
2022/01/03 01:28:21;;;;;;;4.03;2.20;;;16.60;56.40;;;-142.21;82.19;112049.66;4944275;29;20806;-78
2022/01/03 01:30:57;;;;;;;6.90;2.50;;;16.60;56.30;;;-142.21;81.62;112049.66;4956357;29;20507;-78
2022/01/03 01:33:31;;;;;;;7.17;2.40;;;16.60;56.40;;;-142.21;81.08;112049.66;4943215;29;20930;-81
2022/01/03 01:36:03;;;;;;;7.67;2.40;;;16.60;56.00;;;-142.21;81.03;112049.66;4956415;28;21003;-78
2022/01/03 01:38:36;;;;;;;4.60;1.87;;;16.60;56.30;;;-142.21;81.71;112049.66;4955344;29;20519;-78
2022/01/03 01:41:08;;;;;;;3.80;2.10;;;16.60;56.40;;;-142.21;81.03;112049.66;4948275;28;20513;-77
2022/01/03 01:43:41;;;;;;;4.30;1.87;;;16.60;56.10;;;-142.21;80.87;112049.66;4946724;29;20948;-77
2022/01/03 01:46:12;;;;;;;5.70;2.30;;;16.60;56.20;;;-142.21;81.44;112049.66;4955025;29;20496;-80
2022/01/03 01:48:43;;;;;;;5.73;2.10;;;16.60;56.30;;;-142.21;81.81;112049.66;4955513;29;20457;-77
2022/01/03 01:51:17;;;;;;;5.57;2.10;;;16.60;56.30;;;-142.21;81.83;112049.66;4955971;28;20536;-81
2022/01/03 01:53:47;;;;;;;6.30;2.13;;;16.60;56.20;;;-142.21;82.08;112049.66;4954899;29;20887;-79
2022/01/03 01:56:20;;;;;;;6.93;2.30;;;16.50;56.30;;;-142.21;82.33;112049.66;4955270;28;20503;-78
2022/01/03 01:59:12;;;;;;;5.30;1.90;;;16.50;56.50;;;-142.21;82.21;112049.66;4953052;29;20556;-82
2022/01/03 02:01:51;;;;;;;4.53;2.13;;;16.50;56.60;;;-142.21;82.27;112049.66;4948578;29;20543;-78
2022/01/03 02:04:34;;;;;;;5.07;1.97;;;16.50;56.70;;;-142.21;82.65;112049.66;4942760;29;20446;-76
2022/01/03 02:07:36;;;;;;;8.27;2.13;;;16.40;56.80;;;-142.21;82.57;112049.66;4948087;29;20449;-75
2022/01/03 02:10:11;;;;;;;6.30;2.30;;;16.40;56.80;;;-142.21;82.55;112049.66;4937165;29;20484;-76
2022/01/03 02:12:42;;;;;;;6.07;2.20;;;16.40;56.70;;;-142.21;83.18;112049.66;4952796;28;20515;-75
2022/01/03 02:15:14;;;;;;;5.07;2.20;;;16.40;56.80;;;-142.21;83.24;112049.66;4954835;29;20473;-75
2022/01/03 02:17:54;;;;;;;4.63;2.00;;;16.40;56.80;;;-142.21;83.13;112049.66;4955006;29;21012;-79
2022/01/03 02:20:27;;;;;;;4.53;2.13;;;16.50;56.80;;;-142.21;83.30;112049.66;4952381;28;20491;-77
2022/01/03 02:22:56;;;;;;;5.00;1.93;;;16.50;57.00;;;-142.21;83.73;112049.66;4942314;29;20450;-76
2022/01/03 02:25:25;;;;;;;5.63;2.33;;;16.50;56.90;;;-142.21;83.58;112049.66;4944018;29;20551;-76
2022/01/03 02:27:55;;;;;;;6.63;2.00;;;16.40;57.00;;;-142.21;83.48;112049.66;4953156;29;20461;-78
2022/01/03 02:30:26;;;;;;;6.50;2.10;;;16.40;57.00;;;-142.21;83.83;112049.66;4952803;29;20444;-79
2022/01/03 02:32:54;;;;;;;5.73;2.40;;;16.40;57.00;;;-142.21;83.18;112049.66;4955487;29;20491;-79
2022/01/03 02:35:23;;;;;;;4.77;1.90;;;16.40;56.90;;;-142.21;83.61;112049.66;4955228;29;20449;-77
2022/01/03 02:37:52;;;;;;;7.83;2.87;;;16.30;56.80;;;-142.21;83.46;112049.66;4941510;28;20540;-78
2022/01/03 02:40:20;;;;;;;6.93;2.20;;;16.30;57.00;;;-142.21;83.22;112049.66;4943043;29;20504;-78
2022/01/03 02:42:49;;;;;;;3.80;2.13;;;16.40;57.00;;;-142.21;83.50;112049.66;4953920;28;20535;-76
2022/01/03 02:45:20;;;;;;;7.07;2.03;;;16.30;57.00;;;-142.21;83.18;112049.66;4955047;29;20452;-77
2022/01/03 02:47:51;;;;;;;7.00;2.20;;;16.30;56.90;;;-142.21;83.14;112049.66;4944423;29;20488;-77
2022/01/03 02:50:22;;;;;;;4.93;2.20;;;16.30;57.00;;;-142.21;83.20;112049.66;4946586;29;20445;-78
2022/01/03 02:52:50;;;;;;;4.60;2.17;;;16.30;57.20;;;-142.21;83.32;112049.66;4953391;29;20531;-77
2022/01/03 02:55:19;;;;;;;5.40;2.30;;;16.30;56.90;;;-142.21;83.41;112049.66;4943839;28;20964;-76
2022/01/03 02:57:49;;;;;;;4.67;1.93;;;16.30;56.90;;;-142.21;83.96;112049.66;4953646;29;20461;-78
2022/01/03 03:00:20;;;;;;;7.50;2.50;;;16.40;57.10;;;-142.21;83.27;112049.66;4954142;29;20551;-76
2022/01/03 03:02:48;;;;;;;5.67;2.60;;;16.30;57.00;;;-142.21;83.81;112049.66;4952575;29;20980;-79
2022/01/03 03:05:16;;;;;;;7.63;2.60;;;16.30;56.90;;;-142.21;83.59;112049.66;4937704;29;21002;-79
2022/01/03 03:07:48;;;;;;;4.57;2.40;;;16.30;57.00;;;-142.21;83.92;112049.66;4953080;29;20946;-76
2022/01/03 03:10:19;;;;;;;7.20;2.63;;;16.30;57.10;;;-142.21;84.33;112049.66;4935606;29;20470;-76
2022/01/03 03:12:48;;;;;;;4.80;2.77;;;16.30;57.20;;;-142.21;84.65;112049.66;4947537;29;20478;-75
2022/01/03 03:15:17;;;;;;;6.73;2.90;;;16.30;57.20;;;-142.21;84.48;112049.66;4954808;29;20499;-80
2022/01/03 03:17:47;;;;;;;6.07;2.43;;;16.30;57.00;;;-142.21;84.73;112049.66;4952487;29;20512;-76
2022/01/03 03:20:18;;;;;;;7.47;2.20;;;16.20;57.30;;;-142.21;85.50;112049.66;4941964;29;20445;-75
2022/01/03 03:22:49;;;;;;;5.23;2.40;;;16.20;57.40;;;-142.21;85.93;112049.66;4945690;29;20513;-77
2022/01/03 03:25:21;;;;;;;6.60;2.60;;;16.20;57.50;;;-142.21;86.26;112049.66;4954144;28;20618;-76
2022/01/03 03:27:51;;;;;;;5.40;2.03;;;16.20;57.60;;;-142.21;86.09;112049.66;4936787;29;20941;-75
2022/01/03 03:30:24;;;;;;;4.83;2.23;;;16.10;57.60;;;-142.21;86.50;112049.66;4946042;29;20477;-76
2022/01/03 03:32:55;;;;;;;7.47;2.40;;;16.20;57.80;;;-142.21;86.49;112049.66;4953575;29;20476;-75
2022/01/03 03:35:22;;;;;;;7.77;2.20;;;16.20;57.70;;;-142.21;87.10;112049.66;4953650;29;20499;-76
2022/01/03 03:37:51;;;;;;;6.30;2.50;;;16.20;57.80;;;-142.21;87.07;112049.66;4950063;28;20985;-76
2022/01/03 03:40:20;;;;;;;4.83;2.33;;;16.10;57.60;;;-142.21;86.99;112049.66;4946353;29;20552;-76
2022/01/03 03:42:49;;;;;;;9.23;2.77;;;16.20;57.70;;;-142.21;86.62;112049.66;4952330;29;20981;-78
2022/01/03 03:45:17;;;;;;;6.47;2.23;;;16.10;57.70;;;-142.21;86.94;112049.66;4944529;29;20516;-76
2022/01/03 03:47:44;;;;;;;6.57;2.47;;;16.10;57.90;;;-142.21;86.33;112049.66;4953250;29;20869;-80
2022/01/03 03:50:11;;;;;;;5.43;2.40;;;16.10;57.70;;;-142.21;86.24;112049.66;4953516;28;20512;-78
2022/01/03 03:52:39;;;;;;;5.43;2.40;;;16.00;57.80;;;-142.21;86.65;112049.66;4952871;28;20496;-74
2022/01/03 03:55:09;;;;;;;6.20;2.40;;;16.00;57.90;;;-142.21;86.40;112049.66;4953413;29;20572;-78
2022/01/03 03:57:37;;;;;;;6.93;2.53;;;16.00;57.80;;;-142.21;86.08;112049.66;4953046;29;20457;-76
2022/01/03 04:00:07;;;;;;;8.93;2.73;;;15.90;57.70;;;-142.21;86.12;112049.66;4953717;29;20485;-75
2022/01/03 04:02:35;;;;;;;6.10;2.60;;;16.00;57.80;;;-142.21;86.00;112049.66;4949334;29;20531;-74
2022/01/03 04:05:02;;;;;;;7.73;2.60;;;16.00;57.40;;;-142.21;86.50;112049.66;4949361;29;20977;-74
2022/01/03 04:07:29;;;;;;;5.30;2.33;;;16.00;57.50;;;-142.21;85.97;112049.66;4947099;29;20460;-78
2022/01/03 04:09:57;;;;;;;4.87;2.17;;;16.00;57.30;;;-142.21;86.11;112049.66;4953875;29;20543;-76
2022/01/03 04:12:27;;;;;;;4.47;2.30;;;16.00;57.50;;;-142.21;85.94;112049.66;4952007;29;20595;-76
2022/01/03 04:14:54;;;;;;;8.57;2.33;;;16.00;57.50;;;-142.21;86.26;112049.66;4953572;29;20453;-76
2022/01/03 04:17:21;;;;;;;4.63;2.10;;;16.00;57.60;;;-142.21;85.71;112049.66;4953391;29;20500;-76
2022/01/03 04:19:48;;;;;;;4.87;2.10;;;15.90;57.20;;;-142.21;86.31;112049.66;4951639;28;20457;-75
2022/01/03 04:22:16;;;;;;;4.20;2.00;;;15.90;57.50;;;-142.21;86.75;112049.66;4944480;29;20477;-77
2022/01/03 04:24:43;;;;;;;8.50;2.40;;;15.90;57.50;;;-142.21;87.17;112049.66;4945234;28;20449;-76
2022/01/03 04:27:10;;;;;;;4.33;1.90;;;15.80;57.50;;;-142.21;85.65;112049.66;4953306;28;20498;-76
2022/01/03 04:29:39;;;;;;;6.70;2.40;;;15.80;57.80;;;-142.21;87.33;112049.66;4946248;29;20913;-76
2022/01/03 04:32:07;;;;;;;4.80;1.70;;;15.70;57.30;;;-142.21;86.30;112049.66;4955269;28;20535;-78
2022/01/03 04:34:35;;;;;;;2.87;1.60;;;15.70;57.80;;;-142.21;87.16;112049.66;4951733;29;20453;-77
2022/01/03 04:37:02;;;;;;;4.60;1.80;;;15.60;57.50;;;-142.21;87.54;112049.66;4955576;28;20862;-76
2022/01/03 04:39:30;;;;;;;3.77;1.77;;;15.60;57.90;;;-142.21;88.16;112049.66;4957221;29;20487;-76
2022/01/03 04:41:57;;;;;;;4.63;1.57;;;15.40;58.10;;;-142.21;88.36;112049.66;4952632;28;20501;-75
2022/01/03 04:44:24;;;;;;;2.10;1.20;;;15.40;58.30;;;-142.21;89.30;112049.66;4954102;29;20476;-81
2022/01/03 04:46:55;;;;;;;2.67;1.33;;;15.50;58.40;;;-142.21;89.99;112049.66;4957033;29;20507;-76
2022/01/03 04:49:22;;;;;;;1.87;1.27;;;15.40;58.60;;;-142.21;90.61;112049.66;4956377;29;20532;-75
2022/01/03 04:51:50;;;;;;;3.93;1.70;;;15.40;58.80;;;-142.21;91.41;112049.66;4955942;28;20504;-75
2022/01/03 04:54:17;;;;;;;4.80;1.50;;;15.30;58.80;;;-142.21;92.40;112049.66;4956135;29;20886;-75
2022/01/03 04:56:44;;;;;;;3.43;1.50;;;15.30;59.20;;;-142.21;93.03;112049.66;4955830;29;20504;-75
2022/01/03 04:59:15;;;;;;;4.23;1.53;;;15.30;59.40;;;-142.21;93.76;112049.66;4956503;29;20580;-76
2022/01/03 05:01:42;;;;;;;5.67;1.97;;;15.30;59.50;;;-142.21;95.26;112049.66;4956935;28;20842;-76
2022/01/03 05:04:10;;;;;;;4.37;1.50;;;15.30;60.00;;;-142.21;95.59;112049.66;4952069;29;20946;-76
2022/01/03 05:06:38;;;;;;;3.50;1.40;;;15.20;60.40;;;-142.21;96.44;112049.66;4944904;29;20553;-77
2022/01/03 05:09:05;;;;;;;3.70;1.73;;;15.10;61.10;;;-142.21;97.22;112049.66;4956062;28;20452;-76
2022/01/03 05:11:32;;;;;;;5.80;2.20;;;15.10;61.30;;;-142.21;97.21;112049.66;4955908;29;20604;-76
2022/01/03 05:14:00;;;;;;;5.60;2.10;;;15.10;61.60;;;-142.21;98.55;112049.66;4956731;29;20491;-77
2022/01/03 05:16:27;;;;;;;4.43;2.17;;;15.00;62.50;;;-142.21;99.01;112049.66;4955418;28;20628;-76
2022/01/03 05:18:54;;;;;;;4.50;2.00;;;15.00;62.50;;;-142.21;99.15;112049.66;4955377;29;20548;-75
2022/01/03 05:21:24;;;;;;;4.50;2.10;;;15.00;62.90;;;-142.21;99.29;112049.66;4951847;28;20450;-76
2022/01/03 05:23:51;;;;;;;4.70;1.90;;;15.00;62.80;;;-142.21;99.48;112049.66;4939659;29;20501;-75
2022/01/03 05:26:19;;;;;;;6.63;2.33;;;15.10;63.00;;;-142.21;100.00;112049.66;4943274;29;20449;-77
2022/01/03 05:28:47;;;;;;;10.63;2.30;;;15.00;63.20;;;-142.21;100.00;112049.66;4956182;29;20488;-76
2022/01/03 05:31:14;;;;;;;5.93;2.10;;;15.00;63.50;;;-142.21;100.00;112049.66;4946509;29;20449;-76
2022/01/03 05:33:42;;;;;;;6.87;2.30;;;15.00;63.70;;;-142.21;100.00;112049.66;4949842;29;20490;-77
2022/01/03 05:36:09;;;;;;;7.30;2.53;;;15.00;63.50;;;-142.21;99.94;112049.66;4955776;28;20508;-76
2022/01/03 05:38:38;;;;;;;7.53;2.60;;;14.90;63.60;;;-142.21;100.00;112049.66;4955279;29;20453;-76
2022/01/03 05:41:05;;;;;;;6.63;2.43;;;14.90;63.70;;;-142.21;99.87;112049.66;4955710;29;20500;-76
2022/01/03 05:43:32;;;;;;;10.07;2.87;;;14.90;63.60;;;-142.21;99.59;112049.66;4954632;28;20453;-76
2022/01/03 05:46:00;;;;;;;6.27;2.30;;;14.90;63.50;;;-142.21;100.00;112049.66;4946118;28;20535;-77
2022/01/03 05:48:28;;;;;;;5.80;2.30;;;14.90;63.80;;;-142.21;100.00;112049.66;4951281;29;20476;-78
2022/01/03 05:50:55;;;;;;;9.87;2.90;;;14.90;64.10;;;-142.21;99.97;112049.66;4955234;29;20452;-77
2022/01/03 05:53:22;;;;;;;7.63;2.50;;;14.80;64.30;;;-142.21;99.91;112049.66;4954884;29;20539;-76
2022/01/03 05:55:51;;;;;;;7.17;2.40;;;14.90;64.20;;;-142.21;100.00;112049.66;4954819;29;20446;-76
2022/01/03 05:58:19;;;;;;;7.27;2.37;;;14.90;64.20;;;-142.21;99.96;112049.66;4955060;29;20948;-76
2022/01/03 06:00:47;;;;;;;6.57;2.47;;;14.80;64.30;;;-142.21;99.63;112049.66;4954389;29;20861;-75
2022/01/03 06:03:15;;;;;;;6.33;2.60;;;14.80;64.30;;;-142.21;99.91;112049.66;4954277;29;20962;-80
2022/01/03 06:06:04;;;;;;;8.73;3.13;;;14.90;64.20;;;-142.21;100.00;112049.66;4954801;29;20464;-77
2022/01/03 06:08:32;;;;;;;6.70;2.20;;;14.90;64.10;;;-142.21;100.00;112049.66;4939884;29;20450;-75
2022/01/03 06:11:00;;;;;;;8.77;2.40;;;14.90;64.20;;;-142.21;100.00;112049.66;4954527;29;20452;-76
2022/01/03 06:13:28;;;;;;;5.40;2.23;;;14.80;64.30;;;-142.21;100.00;112049.66;4954944;29;20560;-75
2022/01/03 06:15:55;;;;;;;8.47;2.47;;;14.90;64.20;;;-142.21;100.00;112049.66;4954428;29;20448;-77
2022/01/03 06:18:26;;;;;;;6.17;2.33;;;14.90;64.10;;;-142.21;100.00;112049.66;4954868;29;20480;-75
2022/01/03 06:20:55;;;;;;;10.60;2.80;;;14.90;64.70;;;-142.21;100.00;112049.66;4952430;29;20497;-75
2022/01/03 06:23:22;;;;;;;8.40;2.80;;;15.00;64.70;;;-142.21;100.00;112049.66;4953728;29;20445;-75
2022/01/03 06:25:49;;;;;;;7.53;2.80;;;14.90;64.60;;;-142.21;100.00;112049.66;4945327;29;20453;-75
2022/01/03 06:28:18;;;;;;;7.13;2.53;;;14.90;64.80;;;-142.21;100.00;112049.66;4954832;29;20493;-75
2022/01/03 06:30:46;;;;;;;7.23;2.50;;;14.90;64.90;;;-142.21;100.00;112049.66;4954826;29;20531;-75
2022/01/03 06:33:13;;;;;;;8.47;2.70;;;14.90;64.90;;;-142.21;100.00;112049.66;4953620;29;20536;-75
2022/01/03 06:35:41;;;;;;;7.97;2.80;;;14.90;65.00;;;-142.21;100.00;112049.66;4954803;28;20847;-77
2022/01/03 06:38:08;;;;;;;10.33;2.60;;;14.90;64.90;;;-142.21;100.00;112049.66;4953244;28;20515;-75
2022/01/03 06:40:36;;;;;;;8.27;2.50;;;14.90;65.10;;;-142.21;100.00;112049.66;4946325;29;21060;-76
2022/01/03 06:43:03;;;;;;;7.40;2.70;;;14.90;65.20;;;-142.21;100.00;112049.66;4954613;29;20492;-75
2022/01/03 06:45:32;;;;;;;7.47;3.07;;;14.90;65.20;;;-142.21;100.00;112049.66;4950426;29;20513;-75
2022/01/03 06:47:59;;;;;;;7.97;2.57;;;14.90;65.40;;;-142.21;100.00;112049.66;4937681;29;20529;-75
2022/01/03 06:50:28;;;;;;;6.97;2.67;;;15.00;65.30;;;-142.21;100.00;112049.66;4954461;29;20886;-75
2022/01/03 06:52:55;;;;;;;8.43;2.80;;;15.00;65.10;;;-142.21;100.00;112049.66;4954313;28;20997;-76
2022/01/03 06:55:22;;;;;;;9.07;2.50;;;15.00;64.70;;;-142.21;100.00;112049.66;4943744;29;20457;-75
2022/01/03 06:57:50;;;;;;;8.17;2.63;;;15.10;64.70;;;-142.21;100.00;112049.66;4954413;29;20464;-75
2022/01/03 07:00:18;;;;;;;8.03;2.63;;;15.00;64.50;;;-142.21;99.93;112049.66;4953468;29;20483;-76
2022/01/03 07:02:46;;;;;;;8.23;2.53;;;15.00;65.40;;;-142.21;99.56;112049.66;4951709;29;20452;-76
2022/01/03 07:05:15;;;;;;;6.53;2.50;;;15.10;64.30;;;-142.21;99.08;112049.66;4939592;29;20545;-77
2022/01/03 07:07:42;;;;;;;7.00;2.20;;;15.00;64.30;;;-142.21;99.33;112049.66;4954169;28;20484;-75
2022/01/03 07:10:11;;;;;;;6.57;2.53;;;15.00;64.10;;;-142.21;99.35;112049.66;4939789;29;20538;-75
2022/01/03 07:12:39;;;;;;;5.93;2.20;;;15.00;64.00;;;-142.21;99.05;112049.66;4952683;29;20489;-75
2022/01/03 07:20:40;;;;;;;6.93;2.50;;;15.20;64.00;;;-142.21;99.60;112049.66;4934613;29;20457;-79
2022/01/03 07:23:07;;;;;;;8.17;2.90;;;15.20;64.10;;;-142.21;99.73;112049.66;4952696;29;20527;-77
2022/01/03 07:25:34;;;;;;;7.77;2.53;;;15.20;63.90;;;-142.21;100.00;112049.66;4939462;29;20450;-77
2022/01/03 07:28:01;;;;;;;8.80;2.70;;;15.20;63.80;;;-142.21;100.00;112049.66;4952675;29;20555;-75
2022/01/03 07:30:29;;;;;;;7.87;2.47;;;15.10;63.80;;;-142.21;100.00;112049.66;4939284;29;20545;-75
2022/01/03 07:32:58;;;;;;;7.73;2.43;;;15.10;64.40;;;-142.21;100.00;112049.66;4938908;29;20581;-75
2022/01/03 07:35:25;;;;;;;7.93;3.13;;;15.00;64.50;;;-142.21;100.00;112049.66;4954454;29;20809;-76
2022/01/03 07:37:53;;;;;;;5.33;2.43;;;15.00;64.80;;;-142.21;100.00;112049.66;4951313;28;20547;-75
2022/01/03 07:40:20;;;;;;;7.53;2.70;;;15.00;65.00;;;-142.21;100.00;112049.66;4950814;29;20461;-75
2022/01/03 07:42:48;;;;;;;7.67;2.47;;;15.00;65.20;;;-142.21;100.00;112049.66;4934932;29;20512;-75
2022/01/03 07:45:15;;;;;;;8.87;3.00;;;15.00;65.20;;;-142.21;100.00;112049.66;4953798;29;20801;-75
2022/01/03 07:47:42;;;;;;;7.73;2.80;;;15.00;65.10;;;-142.21;100.00;112049.66;4953669;29;20505;-75
2022/01/03 07:50:13;;;;;;;6.60;2.40;;;14.90;65.50;;;-142.21;100.00;112049.66;4952877;28;20546;-75
2022/01/03 07:52:41;;;;;;;6.53;2.50;;;14.90;66.00;;;-142.21;100.00;112049.66;4942939;29;20917;-75
2022/01/03 07:55:12;;;;;;;8.17;2.77;;;14.90;66.00;;;-142.21;100.00;112049.66;4954459;28;20444;-76
2022/01/03 07:57:40;;;;;;;7.27;2.70;;;14.90;66.20;;;-142.21;100.00;112049.66;4939584;28;20567;-75
2022/01/03 08:00:14;;;;;;;9.63;2.53;;;14.90;66.20;;;-142.21;100.00;112049.66;4965837;28;20537;-75
2022/01/03 08:02:42;;;;;;;8.30;3.10;;;14.90;66.40;;;-142.21;100.00;112049.66;4953477;29;20934;-75
2022/01/03 08:05:17;;;;;;;8.47;2.57;;;15.00;66.20;;;-142.21;100.00;112049.66;4952892;28;20454;-77
2022/01/03 08:07:46;;;;;;;6.80;2.23;;;14.90;66.10;;;-142.21;100.00;112049.66;4958553;29;20503;-75
2022/01/03 08:10:16;;;;;;;7.97;2.63;;;15.00;66.20;;;-142.21;100.00;112049.66;4951311;29;20464;-76
2022/01/03 08:12:44;;;;;;;6.50;2.77;;;14.90;66.50;;;-142.21;100.00;112049.66;4951805;29;20548;-75
2022/01/03 08:15:12;;;;;;;8.97;2.97;;;14.90;66.60;;;-142.21;100.00;112049.66;4956739;29;20837;-76
2022/01/03 08:17:39;;;;;;;6.60;3.40;;;14.90;66.70;;;-142.21;100.00;112049.66;4957335;29;20468;-77
2022/01/03 08:20:08;;;;;;;9.17;2.80;;;15.00;66.70;;;-142.21;100.00;112049.66;4956648;29;20527;-75
2022/01/03 08:22:37;;;;;;;10.77;3.53;;;15.00;66.90;;;-142.21;100.00;112049.66;4956553;29;20452;-75
2022/01/03 08:25:05;;;;;;;10.37;2.90;;;15.00;66.80;;;-142.21;100.00;112049.66;4951314;29;20540;-75
2022/01/03 08:27:33;;;;;;;7.30;2.67;;;15.00;66.90;;;-142.21;100.00;112049.66;4956141;29;21028;-76
2022/01/03 08:30:00;;;;;;;7.13;2.73;;;15.00;66.60;;;-142.21;100.00;112049.66;4956834;28;20539;-75
2022/01/03 08:32:27;;;;;;;8.07;2.83;;;15.00;66.40;;;-142.21;100.00;112049.66;4956421;29;20543;-76
2022/01/03 08:34:55;;;;;;;8.30;3.07;;;14.90;66.50;;;-142.21;100.00;112049.66;4956785;29;20809;-75
2022/01/03 08:37:22;;;;;;;7.60;2.80;;;14.90;66.40;;;-142.21;100.00;112049.66;4956405;28;20610;-76
2022/01/03 08:39:51;;;;;;;7.47;2.57;;;14.90;66.20;;;-142.21;100.00;112049.66;4955304;29;20492;-75
2022/01/03 08:42:20;;;;;;;8.40;2.60;;;14.90;66.20;;;-142.21;100.00;112049.66;4955536;29;20496;-76
2022/01/03 08:44:47;;;;;;;6.23;2.63;;;14.90;66.00;;;-142.21;100.00;112049.66;4956688;29;20462;-76
2022/01/03 08:47:15;;;;;;;7.67;2.80;;;15.00;66.40;;;-142.21;100.00;112049.66;4956701;29;20548;-75
2022/01/03 08:49:48;;;;;;;9.23;2.83;;;15.00;65.80;;;-142.21;100.00;112049.66;4955068;28;20787;-75
2022/01/03 08:52:15;;;;;;;8.97;3.53;;;15.10;65.70;;;-142.21;100.00;112049.66;4938244;29;20441;-77
2022/01/03 08:54:43;;;;;;;10.73;3.27;;;15.10;65.40;;;-142.21;100.00;112049.66;4929900;29;20450;-76
2022/01/03 08:57:12;;;;;;;8.43;2.90;;;15.20;65.20;;;-142.21;100.00;112049.66;4946606;29;20515;-76
2022/01/03 08:59:40;;;;;;;7.47;2.50;;;15.20;64.90;;;-142.21;100.00;112049.66;4952801;29;20453;-77
2022/01/03 09:02:15;;;;;;;6.93;2.77;;;15.20;64.50;;;-142.21;100.00;112049.66;4946075;29;20495;-76
2022/01/03 09:04:43;;;;;;;8.10;2.97;;;15.20;64.50;;;-142.21;100.00;112049.66;4968012;28;20435;-77
2022/01/03 09:07:16;;;;;;;6.00;2.70;;;15.30;64.00;;;-142.21;100.00;112049.66;4969936;28;20482;-76
2022/01/03 09:09:43;;;;;;;6.70;2.57;;;15.20;63.70;;;-142.21;99.53;112049.66;4930431;29;20595;-75
2022/01/03 09:12:12;;;;;;;7.93;3.07;;;15.20;63.60;;;-142.21;100.00;112049.66;4938933;29;20434;-76
2022/01/03 09:14:40;;;;;;;8.93;3.10;;;15.30;63.40;;;-142.21;99.06;112049.66;4938800;29;20532;-76
2022/01/03 09:17:07;;;;;;;9.13;2.67;;;15.30;63.20;;;-142.21;99.92;112049.66;4959322;28;20456;-75
2022/01/03 09:19:36;;;;;;;9.03;2.60;;;15.40;63.60;;;-142.21;99.37;112049.66;4958605;28;20483;-76
2022/01/03 09:22:12;;;;;;;5.47;2.47;;;15.50;63.00;;;-142.21;98.98;112049.66;4962802;28;20539;-80
2022/01/03 09:24:53;;;;;;;6.50;2.50;;;15.50;62.90;;;-142.21;98.79;112049.66;4947291;28;20464;-78
2022/01/03 09:30:11;;;;;;;8.63;3.00;;;15.60;62.30;;;-142.21;98.50;112049.66;4961280;28;21319;-78
2022/01/03 09:32:39;;;;;;;5.90;2.60;;;15.50;62.20;;;-142.21;98.54;112049.66;4963073;28;20579;-79
2022/01/03 09:35:09;;;;;;;7.53;2.90;;;15.60;62.30;;;-142.21;98.01;112049.66;4935927;29;20539;-81
2022/01/03 09:37:37;;;;;;;8.50;2.63;;;15.60;62.00;;;-142.21;97.53;112049.66;4951740;28;20515;-80
2022/01/03 09:40:16;;;;;;;5.87;2.57;;;15.60;61.80;;;-142.21;96.98;112049.66;4938852;29;20871;-80
2022/01/03 09:42:51;;;;;;;6.67;2.70;;;15.60;61.40;;;-142.21;96.23;112049.66;4956314;29;20925;-78
2022/01/03 09:45:18;;;;;;;4.33;2.20;;;15.60;61.40;;;-142.21;95.98;112049.66;4952746;29;20472;-75
2022/01/03 09:47:47;;;;;;;9.33;2.87;;;15.60;60.90;;;-142.21;95.77;112049.66;4953018;29;20553;-76
2022/01/03 09:50:20;;;;;;;7.80;2.70;;;15.60;61.10;;;-142.21;95.36;112049.66;4953382;29;20995;-79
2022/01/03 09:52:49;;;;;;;7.17;2.77;;;15.60;60.70;;;-142.21;95.84;112049.66;4938614;29;20491;-80
2022/01/03 09:55:19;;;;;;;5.63;2.30;;;15.70;60.80;;;-142.21;95.24;112049.66;4937383;29;20535;-79
2022/01/03 09:57:49;;;;;;;7.10;2.53;;;15.70;60.50;;;-142.21;95.29;112049.66;4938532;29;20540;-76
2022/01/03 10:00:22;;;;;;;7.77;2.73;;;15.60;60.70;;;-142.21;95.14;112049.66;4944299;29;20576;-80
2022/01/03 10:02:52;;;;;;;4.67;2.40;;;15.60;60.80;;;-142.21;95.36;112049.66;4955007;29;20553;-79
2022/01/03 10:05:21;;;;;;;5.70;2.50;;;15.70;60.80;;;-142.21;95.34;112049.66;4953144;29;20571;-81
2022/01/03 10:07:53;;;;;;;6.97;2.87;;;15.70;60.60;;;-142.21;95.56;112049.66;4954795;29;20455;-77
2022/01/03 10:10:21;;;;;;;8.33;2.37;;;15.80;60.60;;;-142.21;95.48;112049.66;4954508;29;20476;-76
2022/01/03 10:12:50;;;;;;;8.70;2.60;;;15.80;60.50;;;-142.21;95.47;112049.66;4954746;29;20457;-76
2022/01/03 10:15:18;;;;;;;6.33;2.50;;;15.80;60.00;;;-142.21;95.56;112049.66;4954450;29;20472;-77
2022/01/03 10:17:46;;;;;;;6.63;2.63;;;15.80;60.00;;;-142.21;95.35;112049.66;4938319;29;20433;-76